createdAt,value
2018-02-11T00:00:10.067Z,4.32
2018-02-11T00:00:36.183Z,4.31
2018-02-11T00:01:02.291Z,4.34
2018-02-11T00:01:28.388Z,4.37
2018-02-11T00:01:54.494Z,4.41
2018-02-11T00:02:20.595Z,4.45
2018-02-11T00:02:46.714Z,4.45
2018-02-11T00:03:12.809Z,4.37
2018-02-11T00:03:38.905Z,4.48
2018-02-11T00:04:05.030Z,4.5
2018-02-11T00:04:31.130Z,4.44
2018-02-11T00:04:57.251Z,4.38
2018-02-11T00:05:23.348Z,4.34
2018-02-11T00:05:49.447Z,4.32
2018-02-11T00:06:15.545Z,4.4
2018-02-11T00:06:41.642Z,4.41
2018-02-11T00:07:07.742Z,4.32
2018-02-11T00:07:33.844Z,4.32
2018-02-11T00:07:59.946Z,4.34
2018-02-11T00:08:26.049Z,4.37
2018-02-11T00:08:52.146Z,4.34
2018-02-11T00:09:18.243Z,4.32
2018-02-11T00:09:44.344Z,4.32
2018-02-11T00:10:10.448Z,4.48
2018-02-11T00:10:36.541Z,4.38
2018-02-11T00:11:02.646Z,4.55
2018-02-11T00:11:28.735Z,4.45
2018-02-11T00:11:54.834Z,4.45
2018-02-11T00:12:20.951Z,4.5
2018-02-11T00:12:47.054Z,4.5
2018-02-11T00:13:13.160Z,4.52
2018-02-11T00:13:39.259Z,4.42
2018-02-11T00:14:05.355Z,4.45
2018-02-11T00:14:31.475Z,4.5
2018-02-11T00:14:57.567Z,4.48
2018-02-11T00:15:23.671Z,4.41
2018-02-11T00:15:49.763Z,4.45
2018-02-11T00:16:15.861Z,4.37
2018-02-11T00:16:41.960Z,4.38
2018-02-11T00:17:08.067Z,4.48
2018-02-11T00:17:34.163Z,4.4
2018-02-11T00:18:00.263Z,4.42
2018-02-11T00:18:26.361Z,4.48
2018-02-11T00:18:52.465Z,4.52
2018-02-11T00:19:18.569Z,4.58
2018-02-11T00:19:44.664Z,4.49
2018-02-11T00:20:10.762Z,4.42
2018-02-11T00:20:36.893Z,4.34
2018-02-11T00:21:02.985Z,4.49
2018-02-11T00:21:29.086Z,4.49
2018-02-11T00:21:55.187Z,4.6
2018-02-11T00:22:21.281Z,4.62
2018-02-11T00:22:47.386Z,4.58
2018-02-11T00:23:13.481Z,4.63
2018-02-11T00:23:39.600Z,4.7
2018-02-11T00:24:05.711Z,4.63
2018-02-11T00:24:31.826Z,4.56
2018-02-11T00:24:57.928Z,4.56
2018-02-11T00:25:24.034Z,4.67
2018-02-11T00:25:50.146Z,4.6
2018-02-11T00:26:16.250Z,4.5
2018-02-11T00:26:42.350Z,4.5
2018-02-11T00:27:08.451Z,4.49
2018-02-11T00:27:34.546Z,4.56
2018-02-11T00:28:00.645Z,4.58
2018-02-11T00:28:26.750Z,4.58
2018-02-11T00:28:52.867Z,4.59
2018-02-11T00:29:18.962Z,4.49
2018-02-11T00:29:45.062Z,4.42
2018-02-11T00:30:11.167Z,4.4
2018-02-11T00:30:37.263Z,4.49
2018-02-11T00:31:03.365Z,4.5
2018-02-11T00:31:29.468Z,4.42
2018-02-11T00:31:55.564Z,4.32
2018-02-11T00:32:21.674Z,4.48
2018-02-11T00:32:47.779Z,4.49
2018-02-11T00:33:13.878Z,4.52
2018-02-11T00:33:39.980Z,4.49
2018-02-11T00:34:06.077Z,4.53
2018-02-11T00:34:32.175Z,4.5
2018-02-11T00:34:58.282Z,4.42
2018-02-11T00:35:24.392Z,4.41
2018-02-11T00:35:50.495Z,4.44
2018-02-11T00:36:16.590Z,4.49
2018-02-11T00:36:42.689Z,4.38
2018-02-11T00:37:08.819Z,4.32
2018-02-11T00:37:34.924Z,4.4
2018-02-11T00:38:01.028Z,4.52
2018-02-11T00:38:27.120Z,4.53
2018-02-11T00:38:53.225Z,4.45
2018-02-11T00:39:19.322Z,4.42
2018-02-11T00:39:45.424Z,4.5
2018-02-11T00:40:11.535Z,4.34
2018-02-11T00:40:37.644Z,4.48
2018-02-11T00:41:03.745Z,4.45
2018-02-11T00:41:29.851Z,4.52
2018-02-11T00:41:55.948Z,4.5
2018-02-11T00:42:22.047Z,4.5
2018-02-11T00:42:48.145Z,4.41
2018-02-11T00:43:14.248Z,4.37
2018-02-11T00:43:40.341Z,4.48
2018-02-11T00:44:06.443Z,4.41
2018-02-11T00:44:32.544Z,4.4
2018-02-11T00:44:58.638Z,4.34
2018-02-11T00:45:24.736Z,4.48
2018-02-11T00:45:50.835Z,4.48
2018-02-11T00:46:16.938Z,4.52
2018-02-11T00:46:43.036Z,4.45
2018-02-11T00:47:09.140Z,4.38
2018-02-11T00:47:35.238Z,4.37
2018-02-11T00:48:01.340Z,4.37
2018-02-11T00:48:27.454Z,4.37
2018-02-11T00:48:53.552Z,4.35
2018-02-11T00:49:19.656Z,4.38
2018-02-11T00:49:45.751Z,4.45
2018-02-11T00:50:11.854Z,4.4
2018-02-11T00:50:37.949Z,4.32
2018-02-11T00:51:04.056Z,4.34
2018-02-11T00:51:30.161Z,4.42
2018-02-11T00:51:56.256Z,4.32
2018-02-11T00:52:22.358Z,4.4
2018-02-11T00:52:48.453Z,4.38
2018-02-11T00:53:14.559Z,4.44
2018-02-11T00:53:40.654Z,4.35
2018-02-11T00:54:06.770Z,4.34
2018-02-11T00:54:32.870Z,4.32
2018-02-11T00:54:58.966Z,4.3
2018-02-11T00:55:25.076Z,4.38
2018-02-11T00:55:51.184Z,4.42
2018-02-11T00:56:17.284Z,4.37
2018-02-11T00:56:43.381Z,4.31
2018-02-11T00:57:09.481Z,4.41
2018-02-11T00:57:35.576Z,4.42
2018-02-11T00:58:01.678Z,4.41
2018-02-11T00:58:27.835Z,4.38
2018-02-11T00:58:53.936Z,4.34
2018-02-11T00:59:20.037Z,4.44
2018-02-11T00:59:46.133Z,4.31
2018-02-11T01:00:12.231Z,4.37
2018-02-11T01:00:38.334Z,4.44
2018-02-11T01:01:04.425Z,4.44
2018-02-11T01:01:30.524Z,4.49
2018-02-11T01:01:56.628Z,4.45
2018-02-11T01:02:22.729Z,4.45
2018-02-11T01:02:48.828Z,4.5
2018-02-11T01:03:14.927Z,4.42
2018-02-11T01:03:41.022Z,4.48
2018-02-11T01:04:07.129Z,4.42
2018-02-11T01:04:33.229Z,4.45
2018-02-11T01:04:59.323Z,4.5
2018-02-11T01:05:25.427Z,4.53
2018-02-11T01:05:51.524Z,4.52
2018-02-11T01:06:17.624Z,4.48
2018-02-11T01:06:43.726Z,4.5
2018-02-11T01:07:09.829Z,4.45
2018-02-11T01:07:35.943Z,4.48
2018-02-11T01:08:02.041Z,4.49
2018-02-11T01:08:28.141Z,4.53
2018-02-11T01:08:54.240Z,4.58
2018-02-11T01:09:20.345Z,4.52
2018-02-11T01:09:46.443Z,4.37
2018-02-11T01:10:12.547Z,4.38
2018-02-11T01:10:38.649Z,4.34
2018-02-11T01:11:04.744Z,4.37
2018-02-11T01:11:30.841Z,4.42
2018-02-11T01:11:56.944Z,4.35
2018-02-11T01:12:23.045Z,4.44
2018-02-11T01:12:49.140Z,4.35
2018-02-11T01:13:15.242Z,4.35
2018-02-11T01:13:41.339Z,4.38
2018-02-11T01:14:07.490Z,4.44
2018-02-11T01:14:33.590Z,4.48
2018-02-11T01:14:59.703Z,4.49
2018-02-11T01:15:25.807Z,4.53
2018-02-11T01:15:51.907Z,4.45
2018-02-11T01:16:18.006Z,4.35
2018-02-11T01:16:44.107Z,4.45
2018-02-11T01:17:10.204Z,4.48
2018-02-11T01:17:36.302Z,4.4
2018-02-11T01:18:02.417Z,4.37
2018-02-11T01:18:28.518Z,4.38
2018-02-11T01:18:54.611Z,4.44
2018-02-11T01:19:20.716Z,4.48
2018-02-11T01:19:46.816Z,4.52
2018-02-11T01:20:12.918Z,4.49
2018-02-11T01:20:39.014Z,4.35
2018-02-11T01:21:05.119Z,4.35
2018-02-11T01:21:31.216Z,4.45
2018-02-11T01:21:57.315Z,4.37
2018-02-11T01:22:23.418Z,4.45
2018-02-11T01:22:49.514Z,4.38
2018-02-11T01:23:15.617Z,4.37
2018-02-11T01:23:41.714Z,4.32
2018-02-11T01:24:07.818Z,4.32
2018-02-11T01:24:33.923Z,4.22
2018-02-11T01:25:00.055Z,4.34
2018-02-11T01:25:26.147Z,4.35
2018-02-11T01:25:52.246Z,4.32
2018-02-11T01:26:18.350Z,4.3
2018-02-11T01:26:44.452Z,4.3
2018-02-11T01:27:10.552Z,4.42
2018-02-11T01:27:36.651Z,4.49
2018-02-11T01:28:02.748Z,4.49
2018-02-11T01:28:28.850Z,4.31
2018-02-11T01:28:54.946Z,4.32
2018-02-11T01:29:21.044Z,4.4
2018-02-11T01:29:47.146Z,4.44
2018-02-11T01:30:13.242Z,4.44
2018-02-11T01:30:39.356Z,4.37
2018-02-11T01:31:05.449Z,4.3
2018-02-11T01:31:31.550Z,4.22
2018-02-11T01:31:57.651Z,4.24
2018-02-11T01:32:23.758Z,4.23
2018-02-11T01:32:49.848Z,4.32
2018-02-11T01:33:15.949Z,4.28
2018-02-11T01:33:42.063Z,4.35
2018-02-11T01:34:08.159Z,4.2
2018-02-11T01:34:34.258Z,4.12
2018-02-11T01:35:00.352Z,4.19
2018-02-11T01:35:26.454Z,4.24
2018-02-11T01:35:52.557Z,4.22
2018-02-11T01:36:18.655Z,4.16
2018-02-11T01:36:44.759Z,4.17
2018-02-11T01:37:10.876Z,4.16
2018-02-11T01:37:36.974Z,4.12
2018-02-11T01:38:03.078Z,4.08
2018-02-11T01:38:29.178Z,3.96
2018-02-11T01:38:55.277Z,4.01
2018-02-11T01:39:21.380Z,3.96
2018-02-11T01:39:47.476Z,3.94
2018-02-11T01:40:13.575Z,3.94
2018-02-11T01:40:39.677Z,3.96
2018-02-11T01:41:05.779Z,3.95
2018-02-11T01:41:31.886Z,3.99
2018-02-11T01:41:57.972Z,4.02
2018-02-11T01:42:24.076Z,4.05
2018-02-11T01:42:50.170Z,4.1
2018-02-11T01:43:16.273Z,4.22
2018-02-11T01:43:42.366Z,4.1
2018-02-11T01:44:08.466Z,4.1
2018-02-11T01:44:34.571Z,4.17
2018-02-11T01:45:00.665Z,4.22
2018-02-11T01:45:26.762Z,4.1
2018-02-11T01:45:52.865Z,4.02
2018-02-11T01:46:18.958Z,4.08
2018-02-11T01:46:45.062Z,4.06
2018-02-11T01:47:11.164Z,4.16
2018-02-11T01:47:37.264Z,4.19
2018-02-11T01:48:03.359Z,4.16
2018-02-11T01:48:29.464Z,4.13
2018-02-11T01:48:55.566Z,4.08
2018-02-11T01:49:21.660Z,4.06
2018-02-11T01:49:47.780Z,4.17
2018-02-11T01:50:13.878Z,4.13
2018-02-11T01:50:41.398Z,4.06
2018-02-11T01:51:07.497Z,4.08
2018-02-11T01:51:33.601Z,4.12
2018-02-11T01:51:59.697Z,4.12
2018-02-11T01:52:25.787Z,4.08
2018-02-11T01:52:51.892Z,4.08
2018-02-11T01:53:17.986Z,4.19
2018-02-11T01:53:44.097Z,4.12
2018-02-11T01:54:10.190Z,4.06
2018-02-11T01:54:36.296Z,4.08
2018-02-11T01:55:02.393Z,4.1
2018-02-11T01:55:28.494Z,4.01
2018-02-11T01:55:54.596Z,4.05
2018-02-11T01:56:20.697Z,3.95
2018-02-11T01:56:46.797Z,3.92
2018-02-11T01:57:12.891Z,3.94
2018-02-11T01:57:38.995Z,3.98
2018-02-11T01:58:05.089Z,3.99
2018-02-11T01:58:31.191Z,3.99
2018-02-11T01:58:57.294Z,3.94
2018-02-11T01:59:23.392Z,4.05
2018-02-11T01:59:49.497Z,4.05
2018-02-11T02:00:15.601Z,3.98
2018-02-11T02:00:41.694Z,3.98
2018-02-11T02:01:07.793Z,3.94
2018-02-11T02:01:33.895Z,3.98
2018-02-11T02:02:00.000Z,3.94
2018-02-11T02:02:26.102Z,4.04
2018-02-11T02:02:52.212Z,3.99
2018-02-11T02:03:18.311Z,4.01
2018-02-11T02:03:44.417Z,3.99
2018-02-11T02:04:10.511Z,4.01
2018-02-11T02:04:36.617Z,3.96
2018-02-11T02:05:02.731Z,3.99
2018-02-11T02:05:28.850Z,3.87
2018-02-11T02:05:54.947Z,3.88
2018-02-11T02:06:21.043Z,3.86
2018-02-11T02:06:47.151Z,3.81
2018-02-11T02:07:13.246Z,3.77
2018-02-11T02:07:39.343Z,3.74
2018-02-11T02:08:05.461Z,3.8
2018-02-11T02:08:31.573Z,3.74
2018-02-11T02:08:57.673Z,3.76
2018-02-11T02:09:23.774Z,3.78
2018-02-11T02:09:49.871Z,3.62
2018-02-11T02:10:15.974Z,3.77
2018-02-11T02:10:42.075Z,3.77
2018-02-11T02:11:08.169Z,3.65
2018-02-11T02:11:34.274Z,3.59
2018-02-11T02:12:00.372Z,3.7
2018-02-11T02:12:26.469Z,3.65
2018-02-11T02:12:52.574Z,3.69
2018-02-11T02:13:18.674Z,3.74
2018-02-11T02:13:44.780Z,3.74
2018-02-11T02:14:10.902Z,3.68
2018-02-11T02:14:36.995Z,3.68
2018-02-11T02:15:03.097Z,3.65
2018-02-11T02:15:29.199Z,3.8
2018-02-11T02:15:55.299Z,3.66
2018-02-11T02:16:21.416Z,3.76
2018-02-11T02:16:47.517Z,3.74
2018-02-11T02:17:13.613Z,3.91
2018-02-11T02:17:39.714Z,3.87
2018-02-11T02:18:05.808Z,3.76
2018-02-11T02:18:31.912Z,3.88
2018-02-11T02:18:58.009Z,3.81
2018-02-11T02:19:24.120Z,3.69
2018-02-11T02:19:50.217Z,3.62
2018-02-11T02:20:16.332Z,3.7
2018-02-11T02:20:42.431Z,3.63
2018-02-11T02:21:08.530Z,3.62
2018-02-11T02:21:34.626Z,3.63
2018-02-11T02:22:00.723Z,3.59
2018-02-11T02:22:26.828Z,3.69
2018-02-11T02:22:52.923Z,3.51
2018-02-11T02:23:19.018Z,3.51
2018-02-11T02:23:45.116Z,3.4
2018-02-11T02:24:11.221Z,3.26
2018-02-11T02:24:37.324Z,3.29
2018-02-11T02:25:03.420Z,3.26
2018-02-11T02:25:29.522Z,3.29
2018-02-11T02:25:55.619Z,3.25
2018-02-11T02:26:21.717Z,3.28
2018-02-11T02:26:47.818Z,3.34
2018-02-11T02:27:13.923Z,3.23
2018-02-11T02:27:40.018Z,3.37
2018-02-11T02:28:06.118Z,3.4
2018-02-11T02:28:32.220Z,3.32
2018-02-11T02:28:58.315Z,3.42
2018-02-11T02:29:24.417Z,3.41
2018-02-11T02:29:50.518Z,3.42
2018-02-11T02:30:16.612Z,3.36
2018-02-11T02:30:42.709Z,3.26
2018-02-11T02:31:08.811Z,3.21
2018-02-11T02:31:34.909Z,3.29
2018-02-11T02:32:01.012Z,3.29
2018-02-11T02:32:27.108Z,3.25
2018-02-11T02:32:53.210Z,3.32
2018-02-11T02:33:19.313Z,3.26
2018-02-11T02:33:45.407Z,3.25
2018-02-11T02:34:11.506Z,3.23
2018-02-11T02:34:37.614Z,3.28
2018-02-11T02:35:03.713Z,3.26
2018-02-11T02:35:29.810Z,3.26
2018-02-11T02:35:55.912Z,3.25
2018-02-11T02:36:22.013Z,3.25
2018-02-11T02:36:48.107Z,3.32
2018-02-11T02:37:14.204Z,3.23
2018-02-11T02:37:40.297Z,3.23
2018-02-11T02:38:06.400Z,3.28
2018-02-11T02:38:32.505Z,3.19
2018-02-11T02:38:58.601Z,3.31
2018-02-11T02:39:24.708Z,3.22
2018-02-11T02:39:50.805Z,3.23
2018-02-11T02:40:16.903Z,3.32
2018-02-11T02:40:43.016Z,3.34
2018-02-11T02:41:09.139Z,3.23
2018-02-11T02:41:35.261Z,3.28
2018-02-11T02:42:01.358Z,3.4
2018-02-11T02:42:27.455Z,3.23
2018-02-11T02:42:53.567Z,3.25
2018-02-11T02:43:19.670Z,3.28
2018-02-11T02:43:45.762Z,3.18
2018-02-11T02:44:11.868Z,3.32
2018-02-11T02:44:37.967Z,3.28
2018-02-11T02:45:04.076Z,3.18
2018-02-11T02:45:30.170Z,3.16
2018-02-11T02:45:56.269Z,3.21
2018-02-11T02:46:22.367Z,3.21
2018-02-11T02:46:48.467Z,3.23
2018-02-11T02:47:14.566Z,3.14
2018-02-11T02:47:40.668Z,3.16
2018-02-11T02:48:06.769Z,3.25
2018-02-11T02:48:32.864Z,3.26
2018-02-11T02:48:58.966Z,3.26
2018-02-11T02:49:25.066Z,3.13
2018-02-11T02:49:51.161Z,3.18
2018-02-11T02:50:17.282Z,3.36
2018-02-11T02:50:43.402Z,3.23
2018-02-11T02:51:09.503Z,3.37
2018-02-11T02:51:35.623Z,3.25
2018-02-11T02:52:01.746Z,3.22
2018-02-11T02:52:28.210Z,3.22
2018-02-11T02:52:54.306Z,3.41
2018-02-11T02:53:20.404Z,3.42
2018-02-11T02:53:46.672Z,3.42
2018-02-11T02:54:12.903Z,3.5
2018-02-11T02:54:38.993Z,3.56
2018-02-11T02:55:05.091Z,3.59
2018-02-11T02:55:31.343Z,3.42
2018-02-11T02:55:57.457Z,3.48
2018-02-11T02:56:23.913Z,3.53
2018-02-11T02:56:50.101Z,3.51
2018-02-11T02:57:16.223Z,3.5
2018-02-11T02:57:42.358Z,3.55
2018-02-11T02:58:08.498Z,3.59
2018-02-11T02:58:34.614Z,3.59
2018-02-11T02:59:00.712Z,3.7
2018-02-11T02:59:26.835Z,3.77
2018-02-11T02:59:52.939Z,3.74
2018-02-11T03:00:19.469Z,3.78
2018-02-11T03:00:45.574Z,3.69
2018-02-11T03:01:11.672Z,3.6
2018-02-11T03:01:37.767Z,3.55
2018-02-11T03:02:03.872Z,3.68
2018-02-11T03:02:30.446Z,3.56
2018-02-11T03:02:56.659Z,3.56
2018-02-11T03:03:22.745Z,3.74
2018-02-11T03:03:48.846Z,3.74
2018-02-11T03:04:14.942Z,3.69
2018-02-11T03:04:41.048Z,3.63
2018-02-11T03:05:07.197Z,3.59
2018-02-11T03:05:33.556Z,3.55
2018-02-11T03:05:59.837Z,3.55
2018-02-11T03:06:25.959Z,3.62
2018-02-11T03:06:52.057Z,3.44
2018-02-11T03:07:18.161Z,3.41
2018-02-11T03:07:44.552Z,3.44
2018-02-11T03:08:10.695Z,3.37
2018-02-11T03:08:36.842Z,3.45
2018-02-11T03:09:02.940Z,3.51
2018-02-11T03:09:29.035Z,3.44
2018-02-11T03:09:55.140Z,3.44
2018-02-11T03:10:21.240Z,3.32
2018-02-11T03:10:47.543Z,3.22
2018-02-11T03:11:13.715Z,3.4
2018-02-11T03:11:39.859Z,3.37
2018-02-11T03:12:05.958Z,3.34
2018-02-11T03:12:32.057Z,3.34
2018-02-11T03:12:58.170Z,3.4
2018-02-11T03:13:24.335Z,3.45
2018-02-11T03:13:51.219Z,3.34
2018-02-11T03:14:17.258Z,3.29
2018-02-11T03:14:43.359Z,3.37
2018-02-11T03:15:09.456Z,3.45
2018-02-11T03:15:35.789Z,3.4
2018-02-11T03:16:02.146Z,3.36
2018-02-11T03:16:28.394Z,3.34
2018-02-11T03:16:54.488Z,3.31
2018-02-11T03:17:20.606Z,3.41
2018-02-11T03:17:46.702Z,3.44
2018-02-11T03:18:12.996Z,3.56
2018-02-11T03:18:39.291Z,3.48
2018-02-11T03:19:05.894Z,3.56
2018-02-11T03:19:31.994Z,3.55
2018-02-11T03:19:58.099Z,3.45
2018-02-11T03:20:24.423Z,3.55
2018-02-11T03:20:51.014Z,3.65
2018-02-11T03:21:17.257Z,3.65
2018-02-11T03:21:43.311Z,3.53
2018-02-11T03:22:09.400Z,3.56
2018-02-11T03:22:35.515Z,3.42
2018-02-11T03:23:01.730Z,3.47
2018-02-11T03:23:28.305Z,3.48
2018-02-11T03:23:54.342Z,3.5
2018-02-11T03:24:20.436Z,3.47
2018-02-11T03:24:46.535Z,3.42
2018-02-11T03:25:12.636Z,3.47
2018-02-11T03:25:38.730Z,3.47
2018-02-11T03:26:04.827Z,3.37
2018-02-11T03:26:30.926Z,3.41
2018-02-11T03:26:57.042Z,3.4
2018-02-11T03:27:23.136Z,3.42
2018-02-11T03:27:49.237Z,3.44
2018-02-11T03:28:15.335Z,3.45
2018-02-11T03:28:41.442Z,3.53
2018-02-11T03:29:07.556Z,3.55
2018-02-11T03:29:33.653Z,3.65
2018-02-11T03:29:59.757Z,3.63
2018-02-11T03:30:25.859Z,3.62
2018-02-11T03:30:51.958Z,3.73
2018-02-11T03:31:18.059Z,3.74
2018-02-11T03:31:44.156Z,3.74
2018-02-11T03:32:10.276Z,3.65
2018-02-11T03:32:36.380Z,3.6
2018-02-11T03:33:02.476Z,3.65
2018-02-11T03:33:28.589Z,3.69
2018-02-11T03:33:54.690Z,3.62
2018-02-11T03:34:20.788Z,3.65
2018-02-11T03:34:46.893Z,3.65
2018-02-11T03:35:12.993Z,3.65
2018-02-11T03:35:39.093Z,3.66
2018-02-11T03:36:05.193Z,3.62
2018-02-11T03:36:31.306Z,3.66
2018-02-11T03:36:57.403Z,3.63
2018-02-11T03:37:23.504Z,3.6
2018-02-11T03:37:49.609Z,3.58
2018-02-11T03:38:15.703Z,3.58
2018-02-11T03:38:41.811Z,3.51
2018-02-11T03:39:07.905Z,3.68
2018-02-11T03:39:34.012Z,3.63
2018-02-11T03:40:00.109Z,3.63
2018-02-11T03:40:26.206Z,3.58
2018-02-11T03:40:52.308Z,3.63
2018-02-11T03:41:18.409Z,3.63
2018-02-11T03:41:44.503Z,3.69
2018-02-11T03:42:10.611Z,3.68
2018-02-11T03:42:36.720Z,3.55
2018-02-11T03:43:02.908Z,3.55
2018-02-11T03:43:28.981Z,3.59
2018-02-11T03:43:55.097Z,3.53
2018-02-11T03:44:21.184Z,3.42
2018-02-11T03:44:47.279Z,3.56
2018-02-11T03:45:13.378Z,3.51
2018-02-11T03:45:39.503Z,3.48
2018-02-11T03:46:05.610Z,3.47
2018-02-11T03:46:31.704Z,3.5
2018-02-11T03:46:57.807Z,3.42
2018-02-11T03:47:23.903Z,3.48
2018-02-11T03:47:50.007Z,3.5
2018-02-11T03:48:16.109Z,3.48
2018-02-11T03:48:42.208Z,3.42
2018-02-11T03:49:08.310Z,3.5
2018-02-11T03:49:34.540Z,3.44
2018-02-11T03:50:01.619Z,3.45
2018-02-11T03:50:27.719Z,3.34
2018-02-11T03:50:53.817Z,3.25
2018-02-11T03:51:19.922Z,3.4
2018-02-11T03:51:46.018Z,3.34
2018-02-11T03:52:12.112Z,3.41
2018-02-11T03:52:38.218Z,3.41
2018-02-11T03:53:04.311Z,3.37
2018-02-11T03:53:30.415Z,3.48
2018-02-11T03:53:56.514Z,3.51
2018-02-11T03:54:22.607Z,3.48
2018-02-11T03:54:48.974Z,3.53
2018-02-11T03:55:15.077Z,3.4
2018-02-11T03:55:41.173Z,3.42
2018-02-11T03:56:07.280Z,3.51
2018-02-11T03:56:33.396Z,3.44
2018-02-11T03:56:59.492Z,3.48
2018-02-11T03:57:25.621Z,3.42
2018-02-11T03:57:51.801Z,3.5
2018-02-11T03:58:17.966Z,3.56
2018-02-11T03:58:44.433Z,3.53
2018-02-11T03:59:10.509Z,3.58
2018-02-11T03:59:36.664Z,3.51
2018-02-11T04:00:03.013Z,3.56
2018-02-11T04:00:29.112Z,3.65
2018-02-11T04:00:55.209Z,3.62
2018-02-11T04:01:21.340Z,3.68
2018-02-11T04:01:47.436Z,3.65
2018-02-11T04:02:13.540Z,3.69
2018-02-11T04:02:39.969Z,3.65
2018-02-11T04:03:05.998Z,3.68
2018-02-11T04:03:32.121Z,3.63
2018-02-11T04:03:58.220Z,3.74
2018-02-11T04:04:24.618Z,3.65
2018-02-11T04:04:50.700Z,3.76
2018-02-11T04:05:16.804Z,3.77
2018-02-11T04:05:42.904Z,3.77
2018-02-11T04:06:08.993Z,3.78
2018-02-11T04:06:35.098Z,3.69
2018-02-11T04:07:01.195Z,3.78
2018-02-11T04:07:27.309Z,3.84
2018-02-11T04:07:53.410Z,3.78
2018-02-11T04:08:19.541Z,3.77
2018-02-11T04:08:45.632Z,3.73
2018-02-11T04:09:11.732Z,3.77
2018-02-11T04:09:37.849Z,3.73
2018-02-11T04:10:04.188Z,3.8
2018-02-11T04:10:30.308Z,3.63
2018-02-11T04:10:56.402Z,3.65
2018-02-11T04:11:22.511Z,3.69
2018-02-11T04:11:48.607Z,3.76
2018-02-11T04:12:14.999Z,3.68
2018-02-11T04:12:41.120Z,3.77
2018-02-11T04:13:07.252Z,3.74
2018-02-11T04:13:33.358Z,3.69
2018-02-11T04:13:59.460Z,3.76
2018-02-11T04:14:25.563Z,3.8
2018-02-11T04:14:51.661Z,3.8
2018-02-11T04:15:17.766Z,3.83
2018-02-11T04:15:43.878Z,3.78
2018-02-11T04:16:09.979Z,3.8
2018-02-11T04:16:36.079Z,3.76
2018-02-11T04:17:02.183Z,3.73
2018-02-11T04:17:28.280Z,3.8
2018-02-11T04:17:54.371Z,3.8
2018-02-11T04:18:20.473Z,3.83
2018-02-11T04:18:46.573Z,3.88
2018-02-11T04:19:12.696Z,3.92
2018-02-11T04:19:38.811Z,3.92
2018-02-11T04:20:04.998Z,3.88
2018-02-11T04:20:31.098Z,3.86
2018-02-11T04:20:57.193Z,3.86
2018-02-11T04:21:23.297Z,3.83
2018-02-11T04:21:49.427Z,3.86
2018-02-11T04:22:15.580Z,3.84
2018-02-11T04:22:41.683Z,3.84
2018-02-11T04:23:07.779Z,3.8
2018-02-11T04:23:33.883Z,3.8
2018-02-11T04:23:59.977Z,3.91
2018-02-11T04:24:26.081Z,3.95
2018-02-11T04:24:52.182Z,3.98
2018-02-11T04:25:18.283Z,3.91
2018-02-11T04:25:44.382Z,4.01
2018-02-11T04:26:10.482Z,3.95
2018-02-11T04:26:36.581Z,4.01
2018-02-11T04:27:02.687Z,3.96
2018-02-11T04:27:28.784Z,4.02
2018-02-11T04:27:54.885Z,3.98
2018-02-11T04:28:20.988Z,3.99
2018-02-11T04:28:47.451Z,4.01
2018-02-11T04:29:13.964Z,3.99
2018-02-11T04:29:40.355Z,3.96
2018-02-11T04:30:06.458Z,3.91
2018-02-11T04:30:32.554Z,3.96
2018-02-11T04:30:58.650Z,3.96
2018-02-11T04:31:24.752Z,3.94
2018-02-11T04:31:50.850Z,3.92
2018-02-11T04:32:16.955Z,3.99
2018-02-11T04:32:43.056Z,4.04
2018-02-11T04:33:09.152Z,3.95
2018-02-11T04:33:35.252Z,4.04
2018-02-11T04:34:01.350Z,4.05
2018-02-11T04:34:27.466Z,3.99
2018-02-11T04:34:53.552Z,3.96
2018-02-11T04:35:19.674Z,3.88
2018-02-11T04:35:45.793Z,3.94
2018-02-11T04:36:11.889Z,3.84
2018-02-11T04:36:37.983Z,3.86
2018-02-11T04:37:04.080Z,3.8
2018-02-11T04:37:30.241Z,3.84
2018-02-11T04:37:56.336Z,3.94
2018-02-11T04:38:22.436Z,3.86
2018-02-11T04:38:48.533Z,3.65
2018-02-11T04:39:14.639Z,3.63
2018-02-11T04:39:40.741Z,3.77
2018-02-11T04:40:06.844Z,3.74
2018-02-11T04:40:33.207Z,3.88
2018-02-11T04:40:59.302Z,3.86
2018-02-11T04:41:25.399Z,3.91
2018-02-11T04:41:51.498Z,3.81
2018-02-11T04:42:17.592Z,3.73
2018-02-11T04:42:43.695Z,3.63
2018-02-11T04:43:09.801Z,3.69
2018-02-11T04:43:35.902Z,3.73
2018-02-11T04:44:02.008Z,3.68
2018-02-11T04:44:28.105Z,3.77
2018-02-11T04:44:54.205Z,3.78
2018-02-11T04:45:20.304Z,3.76
2018-02-11T04:45:46.422Z,3.88
2018-02-11T04:46:12.528Z,3.87
2018-02-11T04:46:39.071Z,3.77
2018-02-11T04:47:05.121Z,3.68
2018-02-11T04:47:31.314Z,3.81
2018-02-11T04:47:57.419Z,3.8
2018-02-11T04:48:23.519Z,3.77
2018-02-11T04:48:49.614Z,3.86
2018-02-11T04:49:15.713Z,3.87
2018-02-11T04:49:42.026Z,3.86
2018-02-11T04:50:08.119Z,3.77
2018-02-11T04:50:34.239Z,3.87
2018-02-11T04:51:00.335Z,3.92
2018-02-11T04:51:26.436Z,3.98
2018-02-11T04:51:52.532Z,3.84
2018-02-11T04:52:18.633Z,3.86
2018-02-11T04:52:44.737Z,3.77
2018-02-11T04:53:10.848Z,3.86
2018-02-11T04:53:36.953Z,3.94
2018-02-11T04:54:03.086Z,3.96
2018-02-11T04:54:29.216Z,3.99
2018-02-11T04:54:55.312Z,3.96
2018-02-11T04:55:21.410Z,3.94
2018-02-11T04:55:47.510Z,3.92
2018-02-11T04:56:13.608Z,4.01
2018-02-11T04:56:39.712Z,3.91
2018-02-11T04:57:05.808Z,3.94
2018-02-11T04:57:31.908Z,3.98
2018-02-11T04:57:58.008Z,3.96
2018-02-11T04:58:24.160Z,3.94
2018-02-11T04:58:50.247Z,3.92
2018-02-11T04:59:16.368Z,3.99
2018-02-11T04:59:42.478Z,3.99
2018-02-11T05:00:08.573Z,3.91
2018-02-11T05:00:34.678Z,4.02
2018-02-11T05:01:00.772Z,3.96
2018-02-11T05:01:26.867Z,3.99
2018-02-11T05:01:52.980Z,3.92
2018-02-11T05:02:19.087Z,3.99
2018-02-11T05:02:45.209Z,4.01
2018-02-11T05:03:11.313Z,3.98
2018-02-11T05:03:37.411Z,3.99
2018-02-11T05:04:03.821Z,3.96
2018-02-11T05:04:29.948Z,3.96
2018-02-11T05:04:56.042Z,3.94
2018-02-11T05:05:22.146Z,3.88
2018-02-11T05:05:48.241Z,3.76
2018-02-11T05:06:14.334Z,3.83
2018-02-11T05:06:40.437Z,3.91
2018-02-11T05:07:06.532Z,3.95
2018-02-11T05:07:32.648Z,3.87
2018-02-11T05:07:58.799Z,3.96
2018-02-11T05:08:24.904Z,3.99
2018-02-11T05:08:51.020Z,3.99
2018-02-11T05:09:17.117Z,4.01
2018-02-11T05:09:43.222Z,3.98
2018-02-11T05:10:09.343Z,3.94
2018-02-11T05:10:35.449Z,3.91
2018-02-11T05:11:01.557Z,3.87
2018-02-11T05:11:27.659Z,3.88
2018-02-11T05:11:53.756Z,3.94
2018-02-11T05:12:19.858Z,3.94
2018-02-11T05:12:45.952Z,4.02
2018-02-11T05:13:12.056Z,4.08
2018-02-11T05:13:38.157Z,4.05
2018-02-11T05:14:04.254Z,4.08
2018-02-11T05:14:30.365Z,4.05
2018-02-11T05:14:56.468Z,4.08
2018-02-11T05:15:22.651Z,4.08
2018-02-11T05:15:48.754Z,3.99
2018-02-11T05:16:14.854Z,3.94
2018-02-11T05:16:40.948Z,3.91
2018-02-11T05:17:07.074Z,4.02
2018-02-11T05:17:33.169Z,4.04
2018-02-11T05:17:59.294Z,4.04
2018-02-11T05:18:25.390Z,4.06
2018-02-11T05:18:51.493Z,4.04
2018-02-11T05:19:17.618Z,4.01
2018-02-11T05:19:43.745Z,4.01
2018-02-11T05:20:09.859Z,3.96
2018-02-11T05:20:35.984Z,3.99
2018-02-11T05:21:02.082Z,3.91
2018-02-11T05:21:28.234Z,3.78
2018-02-11T05:21:54.300Z,3.84
2018-02-11T05:22:20.400Z,3.87
2018-02-11T05:22:46.502Z,3.95
2018-02-11T05:23:12.623Z,3.87
2018-02-11T05:23:38.728Z,3.88
2018-02-11T05:24:04.830Z,3.88
2018-02-11T05:24:30.929Z,3.74
2018-02-11T05:24:57.024Z,3.77
2018-02-11T05:25:23.124Z,3.83
2018-02-11T05:25:49.223Z,3.76
2018-02-11T05:26:15.316Z,3.8
2018-02-11T05:26:41.417Z,3.76
2018-02-11T05:27:07.517Z,3.73
2018-02-11T05:27:33.611Z,3.78
2018-02-11T05:27:59.737Z,3.8
2018-02-11T05:28:26.072Z,3.66
2018-02-11T05:28:52.507Z,3.63
2018-02-11T05:29:18.610Z,3.78
2018-02-11T05:29:44.703Z,3.78
2018-02-11T05:30:10.807Z,3.73
2018-02-11T05:30:36.935Z,3.77
2018-02-11T05:31:03.036Z,3.66
2018-02-11T05:31:29.136Z,3.74
2018-02-11T05:31:55.241Z,3.74
2018-02-11T05:32:21.342Z,3.77
2018-02-11T05:32:47.457Z,3.81
2018-02-11T05:33:13.561Z,3.66
2018-02-11T05:33:39.715Z,3.66
2018-02-11T05:34:05.760Z,3.78
2018-02-11T05:34:31.860Z,3.77
2018-02-11T05:34:57.975Z,3.63
2018-02-11T05:35:24.077Z,3.68
2018-02-11T05:35:50.196Z,3.77
2018-02-11T05:36:16.304Z,3.76
2018-02-11T05:36:42.406Z,3.68
2018-02-11T05:37:08.533Z,3.63
2018-02-11T05:37:34.654Z,3.62
2018-02-11T05:38:00.770Z,3.74
2018-02-11T05:38:26.871Z,3.7
2018-02-11T05:38:52.967Z,3.6
2018-02-11T05:39:19.068Z,3.74
2018-02-11T05:39:45.189Z,3.73
2018-02-11T05:40:11.286Z,3.86
2018-02-11T05:40:37.402Z,3.74
2018-02-11T05:41:03.518Z,3.69
2018-02-11T05:41:29.616Z,3.66
2018-02-11T05:41:55.725Z,3.66
2018-02-11T05:42:21.820Z,3.66
2018-02-11T05:42:47.938Z,3.78
2018-02-11T05:43:14.041Z,3.65
2018-02-11T05:43:40.137Z,3.74
2018-02-11T05:44:06.237Z,3.65
2018-02-11T05:44:32.334Z,3.68
2018-02-11T05:44:58.434Z,3.68
2018-02-11T05:45:24.530Z,3.6
2018-02-11T05:45:50.634Z,3.59
2018-02-11T05:46:16.738Z,3.56
2018-02-11T05:46:42.841Z,3.55
2018-02-11T05:47:08.942Z,3.51
2018-02-11T05:47:35.040Z,3.45
2018-02-11T05:48:01.143Z,3.55
2018-02-11T05:48:27.243Z,3.47